Time;durP1;ratioP1;P1;durP2;ratioP2;P2;SDS_P1;SDS_P2;PMS_P1;PMS_P2;Temp;Humidity;BMP_temperature;BMP_pressure;BME280_temperature;BME280_humidity;BME280_pressure;Samples;Min_cycle;Max_cycle;Signal;HPM_P1;HPM_P2
2021/12/08 00:00:55;;;;;;;1.25;0.82;;;;;;;4.53;93.17;99177.41;4971712;28;100810;-35
2021/12/08 00:03:22;;;;;;;0.70;0.70;;;;;;;4.65;92.76;99198.06;4971978;28;96641;-34
2021/12/08 00:05:48;;;;;;;2.25;1.83;;;;;;;4.65;92.27;99198.06;4972292;28;96768;-34
2021/12/08 00:08:16;;;;;;;3.38;1.48;;;;;;;4.67;92.11;99206.91;4973364;28;98412;-34
2021/12/08 00:13:25;;;;;;;0.80;0.60;;;;;;;4.73;92.21;99202.94;4970447;28;96590;-34
2021/12/08 00:15:54;;;;;;;1.67;0.90;;;;;;;4.73;92.13;99180.63;4971821;28;97223;-34
2021/12/08 00:18:24;;;;;;;1.50;0.82;;;;;;;4.76;92.66;99178.59;4971559;28;101186;-34
2021/12/08 00:20:52;;;;;;;1.50;0.88;;;;;;;4.73;93.32;99153.81;4973192;28;97861;-34
2021/12/08 00:23:18;;;;;;;0.47;0.45;;;;;;;4.83;93.64;99157.63;4971541;28;96674;-35
2021/12/08 00:25:45;;;;;;;2.95;1.42;;;;;;;4.87;92.47;99167.19;4971704;28;96808;-34
2021/12/08 00:28:11;;;;;;;2.42;1.17;;;;;;;4.89;92.89;99160.75;4971565;28;100781;-34
2021/12/08 00:30:40;;;;;;;1.90;1.33;;;;;;;4.96;92.93;99182.69;4971661;28;100250;-34
2021/12/08 00:33:07;;;;;;;1.65;1.35;;;;;;;5.01;92.77;99177.03;4955751;28;96785;-34
2021/12/08 00:35:33;;;;;;;2.35;1.48;;;;;;;5.05;92.69;99174.03;4971688;28;96667;-34
2021/12/08 00:37:59;;;;;;;1.85;0.60;;;;;;;5.06;92.51;99170.38;4970608;28;100789;-34
2021/12/08 00:40:26;;;;;;;1.65;1.42;;;;;;;5.12;92.37;99182.53;4971272;28;100612;-34
2021/12/08 00:42:52;;;;;;;0.88;0.68;;;;;;;5.13;92.71;99178.03;4971537;28;96714;-34
2021/12/08 00:45:19;;;;;;;1.35;0.80;;;;;;;5.15;92.38;99184.13;4971376;28;96733;-34
2021/12/08 00:47:46;;;;;;;2.95;1.45;;;;;;;5.11;92.07;99178.13;4971216;28;100765;-34
2021/12/08 00:50:13;;;;;;;4.97;1.33;;;;;;;5.16;92.31;99193.94;4971168;28;100881;-34
2021/12/08 00:52:39;;;;;;;2.47;1.38;;;;;;;5.20;92.29;99212.41;4971334;28;96753;-34
2021/12/08 00:55:07;;;;;;;4.32;1.35;;;;;;;5.14;92.17;99196.69;4971556;28;96717;-34
2021/12/08 00:57:33;;;;;;;3.33;1.40;;;;;;;5.18;92.35;99205.44;4971119;28;100787;-34
2021/12/08 01:00:02;;;;;;;2.60;1.38;;;;;;;5.18;92.21;99211.66;4971167;28;100777;-34
2021/12/08 01:02:27;;;;;;;1.00;0.90;;;;;;;5.20;92.32;99208.88;4970068;28;97032;-34
2021/12/08 01:04:52;;;;;;;1.77;0.68;;;;;;;5.14;92.45;99201.22;4972713;28;96767;-34
2021/12/08 01:07:18;;;;;;;4.75;1.35;;;;;;;5.22;92.03;99217.66;4971897;28;110085;-35
2021/12/08 01:09:43;;;;;;;1.00;0.90;;;;;;;5.19;92.81;99218.72;4972353;28;97712;-34
2021/12/08 01:12:09;;;;;;;2.40;1.40;;;;;;;5.23;92.33;99219.41;4971560;28;121130;-34
2021/12/08 01:14:35;;;;;;;2.97;1.00;;;;;;;5.21;92.46;99215.97;4972492;28;96652;-34
2021/12/08 01:17:02;;;;;;;2.50;1.08;;;;;;;5.24;92.30;99221.13;4972234;28;97905;-34
2021/12/08 01:19:30;;;;;;;9.27;1.88;;;;;;;5.19;92.49;99224.09;4970965;28;100773;-34
2021/12/08 01:21:55;;;;;;;1.05;0.60;;;;;;;5.28;92.50;99230.69;4970888;28;96536;-34
2021/12/08 01:24:21;;;;;;;3.22;1.15;;;;;;;5.22;92.03;99233.78;4972380;28;96689;-34
2021/12/08 01:26:47;;;;;;;3.85;1.63;;;;;;;5.26;92.05;99240.66;4971865;28;97924;-34
2021/12/08 01:29:13;;;;;;;1.77;0.65;;;;;;;5.34;92.24;99243.72;4970613;28;100105;-34
2021/12/08 01:31:43;;;;;;;7.38;1.27;;;;;;;5.36;92.20;99251.66;4970609;28;96796;-34
2021/12/08 01:34:10;;;;;;;4.18;0.82;;;;;;;5.35;92.23;99247.25;4970729;28;96643;-34
2021/12/08 01:36:37;;;;;;;3.20;1.60;;;;;;;5.31;92.16;99236.75;4974048;28;100697;-34
2021/12/08 01:39:07;;;;;;;1.45;0.75;;;;;;;5.33;92.04;99233.94;4974176;28;101388;-34
2021/12/08 01:41:33;;;;;;;5.32;1.80;;;;;;;5.37;92.00;99237.28;4974325;28;96705;-35
2021/12/08 01:46:48;;;;;;;2.13;0.82;;;;;;;5.39;92.11;99240.75;4975847;28;96941;-35
2021/12/08 01:49:14;;;;;;;0.75;0.43;;;;;;;5.39;92.18;99240.75;4975487;28;97399;-34
2021/12/08 01:51:39;;;;;;;0.88;0.75;;;;;;;5.37;91.82;99245.34;4973786;28;96691;-34
2021/12/08 01:54:06;;;;;;;3.10;1.05;;;;;;;5.33;92.05;99248.22;4975302;28;96699;-34
2021/12/08 01:56:34;;;;;;;3.15;1.10;;;;;;;5.45;91.83;99272.53;4973894;28;101319;-34
2021/12/08 01:59:01;;;;;;;1.23;0.98;;;;;;;5.45;91.80;99276.06;4973692;28;100780;-34
2021/12/08 02:01:29;;;;;;;3.42;1.40;;;;;;;5.39;91.96;99263.06;4973419;28;96889;-34
2021/12/08 02:03:55;;;;;;;5.18;1.48;;;;;;;5.44;91.64;99279.75;4973967;28;96556;-34
2021/12/08 02:06:22;;;;;;;2.78;0.90;;;;;;;5.41;91.81;99271.91;4973761;28;100818;-34
2021/12/08 02:08:51;;;;;;;1.42;0.75;;;;;;;5.41;92.00;99255.78;4974062;28;101061;-34
2021/12/08 02:11:18;;;;;;;11.07;1.80;;;;;;;5.45;91.85;99270.72;4975208;28;96458;-34
2021/12/08 02:13:43;;;;;;;16.58;0.77;;;;;;;5.43;92.15;99266.41;4973704;28;96764;-35
2021/12/08 02:16:12;;;;;;;2.28;1.08;;;;;;;5.48;91.90;99281.28;4974494;28;97224;-34
2021/12/08 02:18:38;;;;;;;1.73;1.13;;;;;;;5.43;92.10;99283.38;4973446;28;100909;-35
2021/12/08 02:21:18;;;;;;;1.52;0.90;;;;;;;5.39;92.05;99279.19;4975310;28;96490;-34
2021/12/08 02:23:44;;;;;;;4.35;1.25;;;;;;;5.45;91.93;99283.28;4973750;28;96670;-34
2021/12/08 02:26:10;;;;;;;5.20;0.63;;;;;;;5.46;92.13;99296.63;4974811;28;97977;-35
2021/12/08 02:28:35;;;;;;;1.42;0.50;;;;;;;5.43;91.83;99288.72;4975030;28;97311;-34
2021/12/08 02:31:04;;;;;;;1.50;0.95;;;;;;;5.48;91.74;99293.81;4974664;28;96527;-34
2021/12/08 02:47:51;;;;;;;1.75;0.60;;;;;;;5.45;90.64;99291.34;4973357;28;97129;-34
2021/12/08 02:50:18;;;;;;;6.07;0.82;;;;;;;5.37;90.38;99278.41;4974279;28;98790;-34
2021/12/08 02:52:44;;;;;;;0.60;0.60;;;;;;;5.32;90.49;99272.50;4973076;28;96893;-34
2021/12/08 02:55:09;;;;;;;5.57;0.65;;;;;;;5.32;90.51;99285.91;4974501;28;96769;-35
2021/12/08 02:57:35;;;;;;;1.10;0.47;;;;;;;5.36;90.00;99284.72;4974441;28;97331;-35
2021/12/08 03:00:04;;;;;;;0.20;0.15;;;;;;;5.35;90.16;99288.38;4974767;28;97880;-35
2021/12/08 03:02:29;;;;;;;1.17;0.32;;;;;;;5.32;90.01;99297.50;4973926;28;96815;-34
2021/12/08 03:04:55;;;;;;;0.32;0.22;;;;;;;5.38;89.69;99306.13;4974831;28;96831;-34
2021/12/08 03:07:20;;;;;;;1.98;0.77;;;;;;;5.37;89.85;99297.22;4973052;28;116410;-35
2021/12/08 03:09:45;;;;;;;1.80;0.65;;;;;;;5.33;90.21;99293.00;4972719;28;99459;-35
2021/12/08 03:12:11;;;;;;;1.33;0.60;;;;;;;5.33;89.52;99301.91;4974059;28;96812;-34
2021/12/08 03:14:36;;;;;;;2.40;1.33;;;;;;;5.32;89.89;99288.59;4974028;28;96754;-34
2021/12/08 03:17:08;;;;;;;0.70;0.45;;;;;;;5.34;89.98;99302.78;4972483;28;100848;-35
2021/12/08 03:19:34;;;;;;;0.90;0.28;;;;;;;5.32;89.74;99293.97;4972441;28;101368;-35
2021/12/08 03:22:02;;;;;;;1.25;0.75;;;;;;;5.31;89.97;99297.59;4972686;28;96634;-34
2021/12/08 03:24:32;;;;;;;0.55;0.50;;;;;;;5.27;89.46;99296.09;4972968;28;96811;-34
2021/12/08 03:27:09;;;;;;;0.28;0.15;;;;;;;5.30;89.58;99295.88;4973807;28;98883;-35
2021/12/08 03:32:16;;;;;;;1.73;0.80;;;;;;;5.20;89.18;99284.88;4973284;28;96582;-34
2021/12/08 03:34:52;;;;;;;0.57;0.50;;;;;;;5.21;88.51;99286.59;4972494;28;97253;-34
2021/12/08 03:37:32;;;;;;;1.88;0.57;;;;;;;5.22;89.27;99303.56;4973740;28;97452;-34
2021/12/08 03:39:59;;;;;;;3.45;0.60;;;;;;;5.15;89.23;99288.81;4972317;28;101140;-35
2021/12/08 03:42:27;;;;;;;0.55;0.25;;;;;;;5.17;88.83;99305.69;4956335;28;96641;-34
2021/12/08 03:44:56;;;;;;;1.15;0.63;;;;;;;5.14;89.28;99305.88;4973709;28;96791;-34
2021/12/08 03:47:27;;;;;;;4.13;0.57;;;;;;;5.08;89.33;99308.00;4973304;28;99546;-34
2021/12/08 03:49:53;;;;;;;0.70;0.70;;;;;;;5.07;88.86;99316.13;4972466;28;101098;-35
2021/12/08 03:52:19;;;;;;;14.95;1.75;;;;;;;5.02;88.78;99316.44;4972150;28;97008;-35
2021/12/08 03:54:44;;;;;;;0.73;0.35;;;;;;;4.99;88.79;99319.31;4973551;28;96817;-35
2021/12/08 03:57:09;;;;;;;0.82;0.75;;;;;;;4.99;88.52;99327.38;4971600;28;127931;-34
2021/12/08 03:59:35;;;;;;;5.32;0.30;;;;;;;4.96;88.33;99346.34;4973227;28;97854;-34
2021/12/08 04:02:01;;;;;;;0.80;0.50;;;;;;;4.94;88.94;99347.41;4971351;28;96922;-34
2021/12/08 04:04:28;;;;;;;3.20;0.77;;;;;;;4.97;89.01;99353.44;4971971;28;96771;-34
2021/12/08 04:06:56;;;;;;;0.75;0.45;;;;;;;4.97;88.62;99355.25;4973159;28;98011;-34
2021/12/08 04:09:34;;;;;;;4.72;1.30;;;;;;;4.96;88.76;99346.34;4971771;28;100962;-34
2021/12/08 04:12:00;;;;;;;2.17;0.98;;;;;;;4.88;88.60;99325.34;4973484;28;96422;-35
2021/12/08 04:14:30;;;;;;;6.75;0.52;;;;;;;4.86;88.12;99327.28;4972209;28;96842;-35
2021/12/08 04:17:02;;;;;;;9.15;1.02;;;;;;;4.92;88.04;99339.44;4971641;28;101833;-34
2021/12/08 04:19:27;;;;;;;0.65;0.45;;;;;;;4.86;88.42;99334.44;4972904;28;97599;-34
2021/12/08 04:22:00;;;;;;;1.13;0.47;;;;;;;4.82;88.09;99331.13;4971503;28;97072;-34
2021/12/08 04:24:26;;;;;;;3.65;1.08;;;;;;;4.87;87.71;99337.06;4971870;28;96948;-34
2021/12/08 04:27:03;;;;;;;1.70;0.80;;;;;;;4.84;87.83;99325.66;4973071;28;97989;-35
2021/12/08 04:29:32;;;;;;;2.58;1.02;;;;;;;4.77;87.82;99330.53;4971504;28;100585;-34
2021/12/08 04:31:59;;;;;;;10.60;0.45;;;;;;;4.77;87.94;99341.28;4955123;28;98391;-35
2021/12/08 04:34:32;;;;;;;2.20;0.57;;;;;;;4.70;87.44;99356.03;4971582;28;96812;-35
2021/12/08 04:37:03;;;;;;;0.98;0.30;;;;;;;4.74;87.46;99379.00;4971395;28;100844;-34
2021/12/08 04:39:50;;;;;;;2.15;0.52;;;;;;;4.75;87.18;99374.50;4973249;28;97911;-35
2021/12/08 04:42:20;;;;;;;0.65;0.30;;;;;;;4.73;87.29;99385.31;4973232;28;96569;-35
2021/12/08 04:44:53;;;;;;;2.40;0.57;;;;;;;4.71;87.68;99381.88;4972746;28;96654;-34
2021/12/08 04:47:35;;;;;;;0.15;0.10;;;;;;;4.66;87.55;99375.94;4972415;28;97990;-34
2021/12/08 05:08:42;;;;;;;0.08;0.08;;;;;;;4.47;86.14;99368.13;4971999;28;97867;-34
2021/12/08 05:11:16;;;;;;;3.30;0.43;;;;;;;4.50;86.47;99367.09;4970505;28;101337;-35
2021/12/08 05:13:44;;;;;;;0.00;0.00;;;;;;;4.44;86.31;99362.97;4970561;28;96974;-34
2021/12/08 05:16:11;;;;;;;0.88;0.45;;;;;;;4.51;86.06;99379.56;4971083;28;96794;-35
2021/12/08 05:18:44;;;;;;;0.25;0.25;;;;;;;4.42;86.00;99372.91;4970723;28;103908;-35
2021/12/08 05:21:33;;;;;;;0.65;0.30;;;;;;;4.44;86.29;99371.00;4972062;28;99650;-34
2021/12/08 05:24:07;;;;;;;0.10;0.10;;;;;;;4.38;85.32;99366.00;4970922;28;96635;-35
2021/12/08 05:26:39;;;;;;;1.75;0.43;;;;;;;4.44;86.29;99384.41;4971025;28;96743;-35
2021/12/08 05:29:12;;;;;;;1.98;1.00;;;;;;;4.37;85.94;99375.88;4970895;28;101427;-35
2021/12/08 05:31:37;;;;;;;3.40;0.52;;;;;;;4.39;85.40;99387.38;4971011;28;100979;-34
2021/12/08 05:34:03;;;;;;;0.28;0.17;;;;;;;4.41;85.23;99398.88;4972191;28;96514;-34
2021/12/08 05:36:29;;;;;;;0.85;0.77;;;;;;;4.39;85.42;99408.81;4970895;28;96786;-34
2021/12/08 05:38:56;;;;;;;1.67;0.57;;;;;;;4.39;85.18;99413.31;4971293;28;99300;-34
2021/12/08 05:41:30;;;;;;;0.20;0.20;;;;;;;4.41;85.42;99422.09;4970523;28;101020;-34
2021/12/08 05:43:55;;;;;;;0.95;0.43;;;;;;;4.38;85.56;99431.19;4970784;28;96643;-35
2021/12/08 05:46:24;;;;;;;0.82;0.50;;;;;;;4.31;85.27;99407.53;4971879;28;97045;-35
2021/12/08 05:48:50;;;;;;;0.77;0.52;;;;;;;4.36;85.34;99411.69;4970490;28;100876;-34
2021/12/08 05:51:20;;;;;;;0.00;0.00;;;;;;;4.35;85.42;99414.44;4971886;28;97888;-34
2021/12/08 05:53:50;;;;;;;0.93;0.60;;;;;;;4.31;85.67;99405.72;4970604;28;97733;-35
2021/12/08 05:56:16;;;;;;;0.40;0.40;;;;;;;4.34;85.19;99413.59;4970870;28;96744;-34
2021/12/08 05:58:42;;;;;;;0.40;0.30;;;;;;;4.30;85.69;99412.03;4971693;28;98309;-34
2021/12/08 06:01:28;;;;;;;0.90;0.77;;;;;;;4.35;85.21;99427.84;4969754;28;100970;-34
2021/12/08 06:03:53;;;;;;;0.80;0.50;;;;;;;4.29;85.39;99414.78;4969972;28;97380;-34
2021/12/08 06:06:21;;;;;;;0.20;0.20;;;;;;;4.25;85.44;99417.66;4971329;28;117011;-34
2021/12/08 06:08:47;;;;;;;2.38;1.42;;;;;;;4.28;85.30;99419.28;4970313;28;100933;-34
2021/12/08 06:11:14;;;;;;;1.42;0.28;;;;;;;4.33;84.62;99419.88;4971706;28;97870;-34
2021/12/08 06:13:42;;;;;;;0.20;0.20;;;;;;;4.30;85.03;99428.13;4970564;28;96670;-34
2021/12/08 06:16:10;;;;;;;9.50;0.50;;;;;;;4.30;85.40;99436.16;4970440;28;96877;-35
2021/12/08 06:18:39;;;;;;;0.57;0.50;;;;;;;4.24;84.45;99447.22;4970236;28;100832;-35
2021/12/08 06:21:08;;;;;;;0.85;0.45;;;;;;;4.21;85.35;99432.19;4972955;28;97887;-34
2021/12/08 06:23:36;;;;;;;0.00;0.00;;;;;;;4.23;85.36;99449.03;4975066;28;96582;-34
2021/12/08 06:26:02;;;;;;;2.55;0.80;;;;;;;4.25;85.26;99463.22;4973597;28;96814;-34
2021/12/08 06:28:28;;;;;;;0.22;0.13;;;;;;;4.15;85.16;99445.97;4972980;28;100826;-34
2021/12/08 06:30:53;;;;;;;0.45;0.35;;;;;;;4.20;85.32;99465.31;4974998;28;97124;-34
2021/12/08 06:33:20;;;;;;;0.35;0.22;;;;;;;4.15;85.11;99458.50;4975043;28;96439;-34
2021/12/08 06:35:57;;;;;;;4.32;0.32;;;;;;;4.20;85.61;99465.31;4975035;28;96480;-34
2021/12/08 06:38:24;;;;;;;2.00;0.43;;;;;;;4.18;85.69;99461.84;4972871;28;100830;-34
2021/12/08 06:41:02;;;;;;;0.15;0.15;;;;;;;4.21;85.34;99466.16;4973352;28;101035;-34
2021/12/08 06:43:37;;;;;;;0.50;0.35;;;;;;;4.19;85.21;99452.84;4973365;28;96519;-34
2021/12/08 06:46:03;;;;;;;1.88;0.98;;;;;;;4.25;85.00;99465.91;4973609;28;96730;-34
2021/12/08 06:48:37;;;;;;;0.00;0.00;;;;;;;4.28;85.06;99470.22;4974633;28;97937;-34
2021/12/08 06:51:17;;;;;;;3.00;0.32;;;;;;;4.20;85.03;99465.31;4972969;28;100839;-34
2021/12/08 06:53:44;;;;;;;0.57;0.32;;;;;;;4.21;84.82;99471.53;4972610;28;96717;-34
2021/12/08 06:56:24;;;;;;;0.00;0.00;;;;;;;4.25;85.35;99482.00;4972980;28;96898;-34
2021/12/08 06:58:55;;;;;;;1.98;1.17;;;;;;;4.18;84.72;99480.63;4972864;28;101373;-34
2021/12/08 07:01:54;;;;;;;3.40;0.70;;;;;;;4.20;84.66;99476.03;4973453;28;99127;-34
2021/12/08 07:04:30;;;;;;;3.10;0.30;;;;;;;4.16;84.57;99487.00;4973124;28;96544;-34
2021/12/08 07:07:12;;;;;;;3.00;0.85;;;;;;;4.14;84.88;99487.09;4973054;28;96697;-34
2021/12/08 07:09:47;;;;;;;1.08;0.13;;;;;;;4.11;84.54;99492.63;4974330;28;98447;-34
2021/12/08 07:12:21;;;;;;;5.32;0.63;;;;;;;4.18;84.70;99511.91;4973017;28;101025;-34
2021/12/08 07:14:54;;;;;;;3.65;0.73;;;;;;;4.14;84.88;99497.81;4974295;28;96443;-34
2021/12/08 07:17:22;;;;;;;0.40;0.25;;;;;;;4.15;84.84;99506.75;4972949;28;96666;-34
2021/12/08 07:20:03;;;;;;;3.70;0.40;;;;;;;4.08;85.01;99495.50;4973144;28;99649;-34
2021/12/08 07:22:30;;;;;;;0.38;0.15;;;;;;;4.08;84.71;99502.69;4972634;28;100912;-34
2021/12/08 07:24:59;;;;;;;4.25;0.45;;;;;;;4.12;84.64;99504.22;4972731;28;96707;-34
2021/12/08 07:27:29;;;;;;;1.13;0.30;;;;;;;4.08;85.23;99498.19;4973777;28;96728;-34
2021/12/08 07:29:58;;;;;;;5.85;0.82;;;;;;;4.09;85.12;99513.28;4972301;28;101429;-34
2021/12/08 07:32:29;;;;;;;0.45;0.40;;;;;;;4.03;85.11;99508.28;4971490;28;100578;-34
2021/12/08 07:34:58;;;;;;;1.10;0.37;;;;;;;4.01;85.04;99511.03;4972620;28;96758;-34
2021/12/08 07:37:28;;;;;;;1.25;0.68;;;;;;;4.04;85.13;99518.91;4972776;28;96832;-34
2021/12/08 07:40:02;;;;;;;1.95;0.98;;;;;;;4.01;84.96;99515.53;4972152;28;102353;-34
2021/12/08 07:42:35;;;;;;;1.38;0.60;;;;;;;4.03;85.42;99522.53;4972161;28;101003;-34
2021/12/08 07:45:07;;;;;;;1.08;0.85;;;;;;;3.99;85.26;99520.97;4971544;28;97175;-34
2021/12/08 07:47:32;;;;;;;1.30;0.60;;;;;;;3.98;85.17;99524.63;4972444;28;97466;-34
2021/12/08 07:50:12;;;;;;;0.95;0.63;;;;;;;3.94;85.22;99516.84;4973653;28;97925;-34
2021/12/08 07:52:42;;;;;;;2.15;0.63;;;;;;;3.99;85.29;99523.66;4972233;28;101337;-34
2021/12/08 07:55:14;;;;;;;9.90;0.88;;;;;;;3.93;85.47;99510.63;4971934;28;96730;-34
2021/12/08 07:57:40;;;;;;;0.87;0.53;;;;;;;3.95;84.90;99507.84;4972167;28;96863;-34
2021/12/08 08:00:43;;;;;;;0.00;0.00;;;;;;;3.99;84.78;99512.09;4973325;28;98431;-34
2021/12/08 08:03:11;;;;;;;11.32;0.45;;;;;;;3.96;84.92;99514.94;4971759;28;101314;-34
2021/12/08 08:05:38;;;;;;;4.43;0.90;;;;;;;3.94;84.77;99512.34;4971996;28;96812;-34
2021/12/08 08:08:09;;;;;;;0.82;0.38;;;;;;;3.95;85.26;99518.56;4971932;28;96804;-34
2021/12/08 08:10:42;;;;;;;0.13;0.10;;;;;;;3.98;84.69;99518.38;4971276;28;101301;-34
2021/12/08 08:13:09;;;;;;;2.47;0.70;;;;;;;3.97;84.89;99516.66;4973405;28;96616;-34
2021/12/08 08:15:42;;;;;;;0.90;0.82;;;;;;;4.05;84.77;99527.78;4971862;28;96604;-34
2021/12/08 08:18:10;;;;;;;4.03;0.65;;;;;;;4.06;84.68;99515.28;4973078;28;96595;-34
2021/12/08 08:20:42;;;;;;;0.82;0.75;;;;;;;4.08;84.20;99516.94;4971746;28;100731;-34
2021/12/08 08:23:08;;;;;;;;;;;;;;;4.12;84.33;99528.31;4972000;28;101184;-34
2021/12/08 08:25:37;;;;;;;0.95;0.60;;;;;;;4.04;84.76;99507.31;4973295;28;96526;-34
2021/12/08 08:28:05;;;;;;;1.73;0.40;;;;;;;4.12;84.98;99514.94;4955944;28;96813;-34
2021/12/08 08:30:40;;;;;;;1.42;0.30;;;;;;;4.13;85.00;99522.88;4972574;28;98016;-34
2021/12/08 08:33:06;;;;;;;0.45;0.43;;;;;;;4.08;84.84;99508.88;4972747;28;97768;-34
2021/12/08 08:35:40;;;;;;;0.75;0.43;;;;;;;4.10;84.84;99512.34;4972575;28;96627;-34
2021/12/08 08:38:10;;;;;;;1.05;0.57;;;;;;;4.11;84.71;99527.47;4971568;28;96742;-34
2021/12/08 08:40:40;;;;;;;4.95;0.98;;;;;;;4.13;84.87;99522.88;4971290;28;102205;-34
2021/12/08 08:43:08;;;;;;;0.40;0.28;;;;;;;4.19;84.82;99538.59;4971448;28;101152;-34
2021/12/08 08:45:40;;;;;;;1.67;0.30;;;;;;;4.16;84.92;99535.25;4971113;28;96796;-34
2021/12/08 08:48:16;;;;;;;1.35;0.93;;;;;;;4.13;84.99;99528.25;4971546;28;96660;-34
2021/12/08 08:50:53;;;;;;;1.48;1.02;;;;;;;4.22;84.49;99545.63;4971267;28;103360;-34
2021/12/08 08:53:22;;;;;;;0.20;0.10;;;;;;;4.25;84.61;99549.00;4971644;28;100878;-34
2021/12/08 08:55:51;;;;;;;12.13;0.77;;;;;;;4.27;84.17;99554.28;4971216;28;96694;-34
2021/12/08 08:58:22;;;;;;;0.98;0.63;;;;;;;4.31;84.65;99549.59;4971203;28;96869;-34
2021/12/08 09:01:02;;;;;;;0.13;0.13;;;;;;;4.35;84.42;99561.88;4970550;28;103603;-34
2021/12/08 09:03:34;;;;;;;1.38;0.82;;;;;;;4.35;84.17;99548.47;4971113;28;102645;-34
2021/12/08 09:06:23;;;;;;;1.00;0.50;;;;;;;4.37;83.94;99559.97;4972548;28;96576;-34
2021/12/08 09:08:49;;;;;;;0.52;0.35;;;;;;;4.36;83.47;99560.91;4972831;28;97124;-34
2021/12/08 09:11:20;;;;;;;3.28;0.32;;;;;;;4.37;83.22;99560.84;4972417;28;100745;-34
2021/12/08 09:13:48;;;;;;;0.73;0.20;;;;;;;4.45;83.89;99565.75;4970845;28;101373;-34
2021/12/08 09:16:24;;;;;;;0.98;0.77;;;;;;;4.48;83.50;99568.25;4971937;28;112090;-34
2021/12/08 09:19:03;;;;;;;0.40;0.15;;;;;;;4.47;84.06;99562.03;4971068;28;98469;-34
2021/12/08 09:22:01;;;;;;;0.57;0.30;;;;;;;4.55;83.79;99576.81;4970991;28;101231;-34
2021/12/08 09:24:37;;;;;;;4.43;0.63;;;;;;;4.58;83.45;99565.94;4971909;28;99815;-34
2021/12/08 09:27:05;;;;;;;1.30;0.55;;;;;;;4.58;83.04;99556.06;4970107;28;97223;-34
2021/12/08 09:29:42;;;;;;;0.10;0.10;;;;;;;4.66;83.39;99569.03;4970996;28;98318;-34
2021/12/08 09:32:21;;;;;;;4.28;1.20;;;;;;;4.71;82.93;99568.75;4970502;28;100803;-34
2021/12/08 09:34:58;;;;;;;4.90;1.77;;;;;;;4.70;83.08;99557.16;4972038;28;99191;-34
2021/12/08 09:37:39;;;;;;;1.52;0.85;;;;;;;4.74;82.76;99568.56;4972095;28;96596;-34
2021/12/08 09:40:13;;;;;;;2.67;0.70;;;;;;;4.81;82.37;99572.63;4972338;28;96608;-34
2021/12/08 09:42:47;;;;;;;7.50;1.30;;;;;;;4.88;82.67;99577.53;4970580;28;102204;-34
2021/12/08 09:45:21;;;;;;;5.40;1.02;;;;;;;4.93;82.90;99584.47;4970997;28;100957;-34
2021/12/08 09:47:47;;;;;;;2.88;0.30;;;;;;;4.95;82.67;99585.25;4970608;28;96612;-34
2021/12/08 09:50:14;;;;;;;1.10;0.45;;;;;;;5.02;82.57;99595.50;4972038;28;96727;-34
2021/12/08 09:52:43;;;;;;;1.75;0.90;;;;;;;5.04;82.08;99595.44;4971537;28;97973;-34
2021/12/08 09:55:12;;;;;;;1.17;0.43;;;;;;;5.04;82.62;99606.16;4970005;28;102450;-34
2021/12/08 09:57:38;;;;;;;0.93;0.45;;;;;;;5.02;82.18;99613.44;4973942;28;96572;-34
2021/12/08 10:00:07;;;;;;;6.07;1.25;;;;;;;5.01;82.04;99617.94;4975190;28;96831;-34
2021/12/08 10:02:34;;;;;;;7.25;1.75;;;;;;;4.99;81.74;99609.13;4974557;28;98063;-34
2021/12/08 10:05:07;;;;;;;3.20;1.13;;;;;;;5.00;82.51;99615.34;4975296;28;97820;-34
2021/12/08 10:07:32;;;;;;;2.25;0.40;;;;;;;5.01;82.76;99611.72;4973914;28;97074;-34
2021/12/08 10:09:58;;;;;;;1.30;1.02;;;;;;;5.03;82.57;99625.88;4975833;28;96609;-34
2021/12/08 10:12:24;;;;;;;2.42;0.80;;;;;;;4.97;82.36;99611.03;4975011;28;98759;-34
2021/12/08 10:14:50;;;;;;;1.05;0.60;;;;;;;4.97;82.12;99627.13;4975048;28;97757;-34
2021/12/08 10:17:17;;;;;;;4.90;0.82;;;;;;;5.03;82.08;99636.63;4973151;28;96993;-34
2021/12/08 10:19:43;;;;;;;0.22;0.13;;;;;;;4.98;81.40;99644.06;4975164;28;96740;-34
2021/12/08 10:22:17;;;;;;;1.85;1.27;;;;;;;4.98;81.82;99628.88;4973548;28;101237;-34
2021/12/08 10:25:01;;;;;;;2.92;0.55;;;;;;;4.96;81.89;99630.78;4973406;28;100982;-34
2021/12/08 10:27:26;;;;;;;2.42;0.80;;;;;;;4.98;81.69;99625.28;4975126;28;96687;-34
2021/12/08 10:29:52;;;;;;;10.82;0.90;;;;;;;4.96;81.74;99617.34;4975039;28;96826;-34
2021/12/08 10:32:17;;;;;;;0.40;0.32;;;;;;;4.96;81.49;99620.03;4973935;28;114415;-34
2021/12/08 10:34:53;;;;;;;1.30;0.73;;;;;;;5.01;81.83;99623.31;4975178;28;97497;-34
2021/12/08 10:37:20;;;;;;;0.82;0.70;;;;;;;5.07;81.62;99624.75;4974661;28;96595;-34
2021/12/08 10:39:49;;;;;;;1.70;0.57;;;;;;;5.06;81.59;99602.44;4973267;28;96805;-34
2021/12/08 10:42:23;;;;;;;5.38;1.30;;;;;;;5.35;81.18;99605.19;4972588;28;100980;-35
2021/12/08 10:47:44;;;;;;;4.03;1.15;;;;;;;5.35;80.34;99632.06;4973618;28;96596;-34
2021/12/08 10:56:19;;;;;;;1.80;0.82;;;;;;;5.41;80.03;99629.00;4974127;28;97018;-34
2021/12/08 10:58:49;;;;;;;1.73;1.10;;;;;;;5.44;80.12;99620.75;4974297;28;96825;-35
2021/12/08 11:01:25;;;;;;;1.67;0.77;;;;;;;5.50;79.37;99623.06;4974344;28;96795;-35
2021/12/08 11:04:02;;;;;;;1.65;0.52;;;;;;;5.76;79.52;99631.38;4972940;28;100779;-34
2021/12/08 11:06:32;;;;;;;3.50;0.98;;;;;;;5.74;78.66;99623.41;4972895;28;100735;-34
2021/12/08 11:08:57;;;;;;;0.82;0.68;;;;;;;5.69;78.66;99622.81;4971470;28;97105;-34
2021/12/08 11:11:28;;;;;;;4.13;0.85;;;;;;;5.62;79.53;99639.41;4973906;28;100948;-35
2021/12/08 11:13:59;;;;;;;1.10;0.80;;;;;;;5.57;79.19;99634.31;4973858;28;99290;-34
2021/12/08 11:16:44;;;;;;;4.82;0.60;;;;;;;5.80;78.54;99624.84;4972787;28;100729;-34
2021/12/08 11:19:19;;;;;;;0.73;0.40;;;;;;;5.85;78.45;99629.94;4974250;28;96478;-34
2021/12/08 11:21:53;;;;;;;0.73;0.45;;;;;;;5.85;79.33;99633.50;4972683;28;96905;-34
2021/12/08 11:24:32;;;;;;;6.38;1.13;;;;;;;5.91;78.77;99630.44;4974101;28;98075;-34
2021/12/08 11:26:59;;;;;;;4.70;1.55;;;;;;;5.87;78.97;99619.97;4974436;28;97917;-34
2021/12/08 11:29:27;;;;;;;2.25;0.43;;;;;;;5.87;77.74;99623.50;4972708;28;96503;-34
2021/12/08 11:31:59;;;;;;;3.20;1.73;;;;;;;5.88;78.87;99621.69;4972466;28;96943;-34
2021/12/08 11:34:38;;;;;;;;;;;;;;;5.99;78.81;99631.81;4974093;28;98074;-34
2021/12/08 11:37:07;;;;;;;2.25;0.73;;;;;;;5.95;78.33;99625.75;4973937;28;97835;-34
2021/12/08 11:39:33;;;;;;;6.03;2.78;;;;;;;6.01;78.87;99640.66;4973775;28;96690;-34
2021/12/08 11:42:06;;;;;;;5.18;0.77;;;;;;;5.99;78.44;99632.66;4972347;28;96790;-34
2021/12/08 11:44:32;;;;;;;3.20;1.33;;;;;;;6.20;77.86;99640.34;4972034;28;100666;-34
2021/12/08 11:47:02;;;;;;;2.70;1.63;;;;;;;6.20;77.45;99634.94;4972079;28;101029;-35
2021/12/08 11:49:27;;;;;;;2.67;1.42;;;;;;;6.26;77.17;99638.13;4972453;28;98161;-34
2021/12/08 11:52:00;;;;;;;2.05;1.42;;;;;;;6.34;77.24;99641.22;4973718;28;106127;-34
2021/12/08 11:54:49;;;;;;;1.35;0.90;;;;;;;6.28;77.43;99638.03;4971860;28;100758;-34
2021/12/08 11:57:19;;;;;;;6.00;2.65;;;;;;;6.22;77.62;99633.94;4971802;28;100976;-35
2021/12/08 12:00:14;;;;;;;1.17;1.05;;;;;;;6.23;77.11;99624.88;4971510;28;97519;-34
2021/12/08 12:03:02;;;;;;;12.20;2.95;;;;;;;6.30;77.24;99636.97;4972534;28;96806;-34
2021/12/08 12:05:36;;;;;;;1.67;1.10;;;;;;;6.28;76.83;99644.28;4973095;28;99220;-34
2021/12/08 12:08:13;;;;;;;1.63;1.20;;;;;;;6.28;77.24;99648.78;4971908;28;100711;-34
2021/12/08 12:10:46;;;;;;;4.45;2.03;;;;;;;6.19;77.62;99626.03;4971866;28;96485;-34
2021/12/08 12:13:12;;;;;;;2.35;1.00;;;;;;;6.32;76.35;99642.28;4971921;28;96764;-35
2021/12/08 12:15:42;;;;;;;0.93;0.77;;;;;;;6.36;76.57;99643.78;4971738;28;100826;-34
2021/12/08 12:18:08;;;;;;;8.25;2.17;;;;;;;6.37;77.35;99641.00;4971897;28;100773;-34
2021/12/08 12:20:40;;;;;;;2.47;1.20;;;;;;;6.26;76.12;99634.56;4971488;28;96490;-34
2021/12/08 12:23:44;;;;;;;4.55;1.70;;;;;;;6.34;76.61;99635.84;4973404;28;96728;-34
2021/12/08 12:26:47;;;;;;;9.57;1.52;;;;;;;6.33;77.19;99647.53;4972332;28;99207;-34
2021/12/08 12:29:56;;;;;;;3.00;1.60;;;;;;;6.38;76.99;99655.31;4971660;28;101018;-34
2021/12/08 12:32:49;;;;;;;1.98;1.35;;;;;;;6.44;77.12;99637.94;4971175;28;96772;-35
2021/12/08 12:35:19;;;;;;;1.15;1.02;;;;;;;6.48;75.70;99658.28;4971726;28;96680;-35
2021/12/08 12:37:45;;;;;;;1.75;1.40;;;;;;;6.46;76.83;99658.41;4971485;28;99124;-34
2021/12/08 12:40:14;;;;;;;1.92;1.02;;;;;;;6.58;77.48;99672.88;4972692;28;97776;-34
2021/12/08 12:42:54;;;;;;;2.05;1.23;;;;;;;6.46;77.34;99679.91;4972737;28;96525;-34
2021/12/08 12:45:22;;;;;;;1.73;1.10;;;;;;;6.45;77.21;99667.41;4973420;28;96678;-34